Terminal Aerodrome Forecast
Issued by NWS

Home | Current Version | Previous Version | Text Only | Print | Product List | Glossary On
Versions: 1 2 3 4 5 6 7 8 9 10 11 12 13 14 15 16
000
FTUS41 KBGM 242320
TAFITH
TAF
KITH 242320Z 2500/2524 32006KT P6SM OVC035
     FM250300 29005KT P6SM OVC015
     FM250600 29005KT P6SM OVC008
      TEMPO 2509/2512 4SM BR
     FM251900 33006KT P6SM BKN015=

USA.gov is the U.S. government's official web portal to all federal, state and local government web resources and services.